Weather reports worldwide

Advertisment
Dunstaffnage, United Kingdom (99006): temperature & dewpoint: 12.09.2019 05:00:00 - 18.09.2019 05:00:00 (BST)Dunstaffnage, United Kingdom (99006): temperature -20cm: 12.09.2019 05:00:00 - 18.09.2019 05:00:00 (BST)Dunstaffnage, United Kingdom (99006): wind speed & gusts: 12.09.2019 05:00:00 - 18.09.2019 05:00:00 (BST)Dunstaffnage, United Kingdom (99006): wind direction: 12.09.2019 05:00:00 - 18.09.2019 05:00:00 (BST)Dunstaffnage, United Kingdom (99006): precipitation: 12.09.2019 05:00:00 - 18.09.2019 05:00:00 (BST)
Date & Time tt [°C] td [°C] tt -20cm [°C] ff [km/h] ff [kn] fx [km/h] fx [kn] dd rr [mm]
18.09.2019 05:00:00 - - - - - - - - -
18.09.2019 04:00:00 10,2 6,5 - 2 1 - - S 0,0
18.09.2019 03:00:00 10,2 7,5 - 4 2 - - ENE 0,0
18.09.2019 02:00:00 10,1 6,8 - 4 2 - - SSW 0,0
18.09.2019 01:00:00 10,3 6,5 - 0 0 - - N 0,0
18.09.2019 00:00:00 9,9 7,7 - 2 1 - - S 0,0
17.09.2019 23:00:00 10,1 7,3 - 2 1 - - SSW 0,0
17.09.2019 22:00:00 10,7 7,2 - 5 3 - - S 0,0
17.09.2019 21:00:00 11,9 6,0 - 9 5 - - WNW 0,0
17.09.2019 20:00:00 11,6 5,8 - 13 7 - - WNW 0,0
17.09.2019 19:00:00 11,8 5,4 - 15 8 - - W 0,0
17.09.2019 18:00:00 13,0 6,8 - 21 11 - - W 0,0
17.09.2019 17:00:00 13,8 6,8 - 15 8 - - W 0,0
17.09.2019 16:00:00 13,6 5,9 - 9 5 - - NW 0,0
17.09.2019 15:00:00 13,8 6,1 - 11 6 - - WNW 0,0
17.09.2019 14:00:00 13,8 6,1 - 13 7 - - WNW 0,0
17.09.2019 13:00:00 13,3 3,8 - 9 5 - - NW 0,0
17.09.2019 12:00:00 13,3 4,8 - 8 4 - - NW 0,0
17.09.2019 11:00:00 12,3 4,5 - 15 8 - - NW 0,0
17.09.2019 10:00:00 11,7 5,2 13,0 16 9 - - WNW 0,0
17.09.2019 09:00:00 10,8 5,4 - 15 8 - - WNW 0,0
17.09.2019 08:00:00 10,5 6,1 - 13 7 - - WNW 0,0
17.09.2019 07:00:00 10,8 6,3 - 13 7 - - WNW 0,0
17.09.2019 06:00:00 10,9 6,6 - 16 9 - - WNW 0,0
17.09.2019 05:00:00 10,7 6,8 - 16 9 - - WNW 0,0
17.09.2019 04:00:00 11,3 7,8 - 21 11 - - W 0,0
17.09.2019 03:00:00 11,4 7,2 - 21 11 - - WNW 0,0
17.09.2019 02:00:00 11,2 7,5 - 18 10 - - W 0,0
17.09.2019 01:00:00 11,4 9,5 - 18 10 - - WNW 0,2
17.09.2019 00:00:00 11,4 9,3 - 29 16 - - W 0,0
16.09.2019 23:00:00 11,0 9,2 - 22 12 - - W 0,0
16.09.2019 22:00:00 11,3 10,0 - 18 10 - - WNW 0,8
16.09.2019 21:00:00 11,9 8,7 - 22 12 - - W 0,0
16.09.2019 20:00:00 12,5 9,2 - 26 14 - - W 0,0
16.09.2019 19:00:00 12,9 8,3 - 22 12 - - W 0,0
16.09.2019 18:00:00 13,2 8,1 - 24 13 - - W 0,0
16.09.2019 17:00:00 15,0 7,8 - 28 15 - - W 0,0
16.09.2019 16:00:00 14,0 8,9 - 26 14 - - W 0,0
16.09.2019 15:00:00 13,9 8,7 - 22 12 - - W 0,0
16.09.2019 14:00:00 13,1 10,3 - 15 8 - - WSW 0,2
16.09.2019 13:00:00 13,2 8,5 - 22 12 - - W 0,0
16.09.2019 12:00:00 12,2 10,0 - 15 8 - - W 0,0
16.09.2019 11:00:00 12,9 8,0 - 26 14 - - W 0,0
16.09.2019 10:00:00 13,1 9,4 13,0 16 9 - - W 0,0
16.09.2019 09:00:00 10,7 9,0 - 9 5 - - WSW 0,0
16.09.2019 08:00:00 9,8 8,5 - 4 2 - - WSW 0,0
16.09.2019 07:00:00 9,4 8,3 - 8 4 - - SSW 0,0
16.09.2019 06:00:00 9,5 8,8 - 11 6 - - WSW 0,0
16.09.2019 05:00:00 9,4 8,9 - 4 2 - - WSW 0,0
16.09.2019 04:00:00 9,1 8,4 - 9 5 - - E 0,4
16.09.2019 03:00:00 9,1 8,3 - 4 2 - - S 0,0
16.09.2019 02:00:00 8,4 7,9 - 8 4 - - S 0,0
16.09.2019 01:00:00 7,4 6,8 - 4 2 - - ENE 0,0
16.09.2019 00:00:00 7,3 6,3 - 0 0 - - N 0,0
15.09.2019 23:00:00 7,5 6,2 - 5 3 - - SSW 0,0
15.09.2019 22:00:00 8,9 6,6 - 8 4 - - SW 0,0
15.09.2019 21:00:00 9,7 7,2 - 5 3 - - WSW 0,0
15.09.2019 20:00:00 11,3 7,0 - 11 6 - - W 0,0
15.09.2019 19:00:00 12,1 6,9 - 16 9 - - W 0,0
15.09.2019 18:00:00 13,1 7,4 - 18 10 - - W 0,0
15.09.2019 17:00:00 13,5 7,0 - 21 11 - - W 0,0
15.09.2019 16:00:00 15,4 6,8 - 21 11 - - W 0,0
15.09.2019 15:00:00 15,5 7,8 - 24 13 - - W 0,0
15.09.2019 14:00:00 12,7 7,4 - 24 13 - - W 0,0
15.09.2019 13:00:00 13,8 7,7 - 26 14 - - W 0,0
15.09.2019 12:00:00 14,4 9,6 - 26 14 - - W 0,0
15.09.2019 11:00:00 12,8 8,4 - 22 12 - - W 0,0
15.09.2019 10:00:00 11,9 7,5 13,4 21 11 - - W 0,0
15.09.2019 09:00:00 11,5 7,3 - 21 11 - - W 0,0
15.09.2019 08:00:00 11,3 7,1 - 18 10 - - W 0,0
15.09.2019 07:00:00 10,9 7,5 - 22 12 - - W 0,0
15.09.2019 06:00:00 11,1 7,3 - 29 16 46 25 W 0,0
15.09.2019 05:00:00 11,1 7,6 - 21 11 - - W 0,0
15.09.2019 04:00:00 11,5 7,8 - 22 12 48 26 W 0,2
15.09.2019 03:00:00 11,6 8,2 - 31 17 50 27 W 0,0
15.09.2019 02:00:00 11,8 9,4 - 41 22 55 30 W 0,0
15.09.2019 01:00:00 12,1 9,8 - 26 14 - - WNW 0,0
15.09.2019 00:00:00 12,2 10,4 - 29 16 - - W 0,2
14.09.2019 23:00:00 11,9 11,0 - 24 13 - - W 1,4
14.09.2019 22:00:00 11,9 11,0 - 22 12 48 26 W 1,0
14.09.2019 21:00:00 12,4 11,7 - 34 18 52 28 W 4,0
14.09.2019 20:00:00 14,7 14,2 - 31 17 55 30 WSW 2,2
14.09.2019 19:00:00 14,6 14,1 - 28 15 55 30 WSW 2,4
14.09.2019 18:00:00 14,4 14,0 - 26 14 48 26 WSW 2,4
14.09.2019 17:00:00 13,9 13,3 - 21 11 48 26 SW 2,2
14.09.2019 16:00:00 14,1 12,9 - 28 15 55 30 SW 0,2
14.09.2019 15:00:00 14,7 12,5 - 29 16 55 30 SW 0,0
14.09.2019 14:00:00 15,0 11,4 - 22 12 - - WSW 0,0
14.09.2019 13:00:00 14,4 11,5 - 11 6 - - S 0,2
14.09.2019 12:00:00 13,0 11,1 - 13 7 - - SW 0,0
14.09.2019 11:00:00 12,8 11,2 - 18 10 - - S 0,2
14.09.2019 10:00:00 12,3 11,0 13,7 21 11 - - S 0,4
14.09.2019 09:00:00 12,3 10,0 - 16 9 - - SSE 0,0
14.09.2019 08:00:00 13,1 9,4 - 18 10 - - S 0,0
14.09.2019 07:00:00 13,5 9,4 - 21 11 - - S 0,0
14.09.2019 06:00:00 13,2 9,2 - 16 9 - - S 0,0
14.09.2019 05:00:00 12,6 8,9 - 16 9 - - SSE 0,0
14.09.2019 04:00:00 12,3 9,0 - 11 6 - - SSE 0,0
14.09.2019 03:00:00 12,0 9,9 - 11 6 - - SE 0,0
14.09.2019 02:00:00 11,9 9,8 - 16 9 - - SSE 0,0
14.09.2019 01:00:00 11,0 9,1 - 5 3 - - WSW 0,0
14.09.2019 00:00:00 11,7 10,2 - 9 5 - - SSE 0,0
13.09.2019 23:00:00 11,1 9,8 - 4 2 - - ESE 0,0
13.09.2019 22:00:00 12,0 9,8 - 2 1 - - SE 0,0
13.09.2019 21:00:00 12,7 9,9 - 5 3 - - SW 0,0
13.09.2019 20:00:00 13,0 9,7 - 8 4 - - SW 0,0
13.09.2019 19:00:00 13,7 9,3 - 13 7 - - SSW 0,0
13.09.2019 18:00:00 15,4 10,7 - 18 10 - - SW 0,0
13.09.2019 17:00:00 15,4 9,8 - 22 12 - - WSW 0,0
13.09.2019 16:00:00 15,3 9,7 - 21 11 - - WSW 0,0
13.09.2019 15:00:00 16,3 8,0 - 26 14 - - W 0,0
13.09.2019 14:00:00 16,8 10,6 - 24 13 - - WSW 0,0
13.09.2019 13:00:00 16,9 10,6 - 24 13 - - WSW 0,0
13.09.2019 12:00:00 16,6 10,3 - 26 14 - - WSW 0,0
13.09.2019 11:00:00 14,4 9,7 - 18 10 - - W 0,0
13.09.2019 10:00:00 13,7 8,9 13,5 15 8 - - W 0,0
13.09.2019 09:00:00 12,7 10,4 - 11 6 - - WSW 0,0
13.09.2019 08:00:00 9,9 7,3 - 8 4 - - SSW 0,0
13.09.2019 07:00:00 11,3 8,1 - 13 7 - - WSW 0,0
13.09.2019 06:00:00 10,0 8,0 - 9 5 - - SW 0,0
13.09.2019 05:00:00 10,3 8,5 - 11 6 - - WSW 0,0
13.09.2019 04:00:00 11,0 8,6 - 16 9 - - W 0,0
13.09.2019 03:00:00 11,0 8,6 - 15 8 - - W 0,0
13.09.2019 02:00:00 10,4 9,3 - 11 6 - - WSW 0,0
13.09.2019 01:00:00 10,7 9,4 - 16 9 - - WSW 1,4
13.09.2019 00:00:00 10,7 8,4 - 11 6 - - SW 0,0
12.09.2019 23:00:00 11,3 8,2 - 11 6 - - SW 0,0
12.09.2019 22:00:00 11,3 8,1 - 8 4 - - SW 0,0
12.09.2019 21:00:00 11,4 8,6 - 13 7 - - WSW 0,0
12.09.2019 20:00:00 12,2 8,7 - 15 8 - - WSW 0,0
12.09.2019 19:00:00 13,4 8,9 - 18 10 - - W 0,0
12.09.2019 18:00:00 14,7 9,4 - 28 15 - - W 0,0
12.09.2019 17:00:00 14,8 9,5 - 21 11 - - W 0,0
12.09.2019 16:00:00 14,9 8,6 - 24 13 - - W 0,0
12.09.2019 15:00:00 16,1 10,7 - 24 13 - - W 0,0
12.09.2019 14:00:00 13,9 11,0 - 24 13 - - W 0,0
12.09.2019 13:00:00 13,2 11,7 - 9 5 - - W 0,2
12.09.2019 12:00:00 12,9 12,1 - 11 6 - - W 0,0
12.09.2019 11:00:00 12,8 12,1 - 11 6 - - SW 0,2
12.09.2019 10:00:00 12,5 11,3 13,9 5 3 - - SSW 0,2
12.09.2019 09:00:00 12,4 11,4 - 8 4 - - SW 0,0
12.09.2019 08:00:00 12,4 11,6 - 8 4 - - SW 0,2
12.09.2019 07:00:00 11,8 10,8 - 8 4 - - SW 0,2
12.09.2019 06:00:00 12,1 10,1 - 13 7 - - WSW 0,0
12.09.2019 05:00:00 12,2 9,6 - 11 6 - - SW 0,0

tt = temperature
td = dewpoint
tt -20cm = temperature -20cm
ff = wind speed
fx = gusts
dd = wind direction
rr = precipitation

Next stations